createdAt,value
2023-05-25T00:00:11.345Z,7.22
2023-05-25T00:02:40.997Z,7.56
2023-05-25T00:04:57.528Z,7.56
2023-05-25T00:05:08.983Z,7.35
2023-05-25T00:07:35.680Z,7.37
2023-05-25T00:09:57.519Z,7.37
2023-05-25T00:10:02.253Z,7.71
2023-05-25T00:12:28.704Z,7.73
2023-05-25T00:14:55.437Z,7.71
2023-05-25T00:14:57.542Z,7.71
2023-05-25T00:17:21.905Z,7.05
2023-05-25T00:19:48.729Z,7.65
2023-05-25T00:19:57.545Z,7.65
2023-05-25T00:22:15.570Z,7.63
2023-05-25T00:24:42.057Z,7.59
2023-05-25T00:24:57.509Z,7.59
2023-05-25T00:27:08.780Z,6.82
2023-05-25T00:29:35.965Z,7.54
2023-05-25T00:29:57.594Z,7.54
2023-05-25T00:32:02.812Z,7.44
2023-05-25T00:34:29.547Z,7.52
2023-05-25T00:34:57.484Z,7.52
2023-05-25T00:36:55.988Z,7.47
2023-05-25T00:39:22.533Z,7.34
2023-05-25T00:39:57.516Z,7.34
2023-05-25T00:41:49.691Z,7.26
2023-05-25T00:44:16.717Z,7.35
2023-05-25T00:44:57.504Z,7.35
2023-05-25T00:46:51.611Z,7.37
2023-05-25T00:49:25.070Z,7.32
2023-05-25T00:49:57.524Z,7.32
2023-05-25T00:51:52.737Z,6.86
2023-05-25T00:54:19.606Z,7.32
2023-05-25T00:54:57.585Z,7.32
2023-05-25T00:57:02.470Z,7.29
2023-05-25T00:59:35.927Z,7.12
2023-05-25T00:59:57.501Z,7.12
2023-05-25T01:02:08.443Z,7.23
2023-05-25T01:04:38.599Z,7.20
2023-05-25T01:04:57.495Z,7.20
2023-05-25T01:07:08.447Z,7.16
2023-05-25T01:09:38.539Z,7.13
2023-05-25T01:09:57.540Z,7.13
2023-05-25T01:12:09.296Z,7.11
2023-05-25T01:14:37.187Z,7.09
2023-05-25T01:14:57.532Z,7.09
2023-05-25T01:17:04.707Z,7.08
2023-05-25T01:19:33.860Z,7.12
2023-05-25T01:20:09.077Z,7.12
2023-05-25T01:22:10.156Z,7.03
2023-05-25T01:24:51.348Z,6.40
2023-05-25T01:24:57.526Z,6.40
2023-05-25T01:27:23.914Z,6.93
2023-05-25T01:29:51.440Z,6.92
2023-05-25T01:29:57.738Z,6.92
2023-05-25T01:32:19.835Z,6.88
2023-05-25T01:34:48.427Z,6.78
2023-05-25T01:34:57.488Z,6.78
2023-05-25T01:37:17.315Z,6.84
2023-05-25T01:39:46.925Z,6.75
2023-05-25T01:39:57.529Z,6.75
2023-05-25T01:42:13.385Z,6.22
2023-05-25T01:44:40.007Z,6.77
2023-05-25T01:44:57.509Z,6.77
2023-05-25T01:47:17.909Z,6.75
2023-05-25T01:49:56.061Z,6.65
2023-05-25T01:49:57.505Z,6.65
2023-05-25T01:52:26.418Z,5.85
2023-05-25T01:55:22.690Z,6.61
2023-05-25T01:55:22.872Z,6.61
2023-05-25T01:57:57.932Z,6.60
2023-05-25T01:59:57.512Z,6.60
2023-05-25T02:00:31.770Z,6.58
2023-05-25T02:02:58.719Z,6.49
2023-05-25T02:04:57.492Z,6.49
2023-05-25T02:05:26.717Z,6.44
2023-05-25T02:07:53.608Z,6.50
2023-05-25T02:09:57.487Z,6.50
2023-05-25T02:10:20.504Z,5.86
2023-05-25T02:12:47.043Z,5.59
2023-05-25T02:14:57.602Z,5.59
2023-05-25T02:15:15.711Z,5.12
2023-05-25T02:17:43.475Z,6.41
2023-05-25T02:19:57.730Z,6.41
2023-05-25T02:20:11.203Z,6.39
2023-05-25T02:22:38.188Z,5.83
2023-05-25T02:24:57.717Z,5.83
2023-05-25T02:25:05.793Z,6.38
2023-05-25T02:27:33.560Z,6.35
2023-05-25T02:29:57.622Z,6.35
2023-05-25T02:30:00.076Z,6.26
2023-05-25T02:32:26.701Z,6.01
2023-05-25T02:34:53.165Z,6.35
2023-05-25T02:34:57.542Z,6.35
2023-05-25T02:37:19.737Z,5.32
2023-05-25T02:39:46.156Z,6.25
2023-05-25T02:39:57.576Z,6.25
2023-05-25T02:42:12.659Z,6.14
2023-05-25T02:44:39.031Z,5.22
2023-05-25T02:44:57.543Z,5.22
2023-05-25T02:47:06.863Z,5.90
2023-05-25T02:49:34.370Z,5.20
2023-05-25T02:49:57.558Z,5.20
2023-05-25T02:52:00.978Z,6.05
2023-05-25T02:54:27.397Z,6.00
2023-05-25T02:54:57.521Z,6.00
2023-05-25T02:56:53.761Z,6.02
2023-05-25T02:59:20.472Z,5.60
2023-05-25T02:59:57.525Z,5.60
2023-05-25T03:01:46.835Z,5.97
2023-05-25T03:04:13.395Z,5.98
2023-05-25T03:04:57.527Z,5.98
2023-05-25T03:06:39.820Z,5.59
2023-05-25T03:09:07.383Z,5.85
2023-05-25T03:09:57.529Z,5.85
2023-05-25T03:11:33.810Z,6.00
2023-05-25T03:14:01.482Z,6.08
2023-05-25T03:14:57.515Z,6.08
2023-05-25T03:16:27.948Z,6.06
2023-05-25T03:18:54.541Z,5.80
2023-05-25T03:19:57.558Z,5.80
2023-05-25T03:21:22.475Z,6.02
2023-05-25T03:23:49.036Z,5.95
2023-05-25T03:24:57.531Z,5.95
2023-05-25T03:26:15.812Z,5.91
2023-05-25T03:28:42.603Z,5.40
2023-05-25T03:29:57.560Z,5.40
2023-05-25T03:31:08.960Z,5.95
2023-05-25T03:33:35.355Z,5.93
2023-05-25T03:34:57.518Z,5.93
2023-05-25T03:36:07.418Z,5.95
2023-05-25T03:38:33.849Z,5.92
2023-05-25T03:39:57.556Z,5.92
2023-05-25T03:41:00.359Z,5.62
2023-05-25T03:43:26.790Z,6.01
2023-05-25T03:44:57.533Z,6.01
2023-05-25T03:45:53.285Z,6.16
2023-05-25T03:48:19.764Z,5.79
2023-05-25T03:49:57.533Z,5.79
2023-05-25T03:50:46.235Z,5.76
2023-05-25T03:53:12.592Z,6.32
2023-05-25T03:54:57.649Z,6.32
2023-05-25T03:55:38.991Z,6.34
2023-05-25T03:58:05.466Z,5.91
2023-05-25T03:59:57.515Z,5.91
2023-05-25T04:00:31.991Z,6.29
2023-05-25T04:02:58.914Z,5.49
2023-05-25T04:04:57.513Z,5.49
2023-05-25T04:05:26.987Z,6.65
2023-05-25T04:07:53.539Z,6.61
2023-05-25T04:09:57.547Z,6.61
2023-05-25T04:10:20.190Z,7.37
2023-05-25T04:12:46.616Z,7.51
2023-05-25T04:14:57.529Z,7.51
2023-05-25T04:15:14.325Z,8.28
2023-05-25T04:17:41.159Z,8.67
2023-05-25T04:19:57.585Z,8.67
2023-05-25T04:20:11.078Z,8.87
2023-05-25T04:22:40.436Z,9.57
2023-05-25T04:24:57.498Z,9.57
2023-05-25T04:25:08.082Z,9.82
2023-05-25T04:27:34.524Z,10.01
2023-05-25T04:29:57.584Z,10.01
2023-05-25T04:30:00.944Z,10.90
2023-05-25T04:32:29.755Z,10.53
2023-05-25T04:34:56.740Z,11.33
2023-05-25T04:34:57.534Z,11.33
2023-05-25T04:37:27.353Z,11.38
2023-05-25T04:39:53.977Z,10.58
2023-05-25T04:39:57.723Z,10.58
2023-05-25T04:42:23.897Z,10.75
2023-05-25T04:44:55.746Z,11.25
2023-05-25T04:44:57.545Z,11.25
2023-05-25T04:47:22.722Z,11.46
2023-05-25T04:49:49.174Z,11.36
2023-05-25T04:49:57.527Z,11.36
2023-05-25T04:52:15.641Z,11.67
2023-05-25T04:54:43.427Z,11.30
2023-05-25T04:54:57.542Z,11.30
2023-05-25T04:57:09.817Z,11.87
2023-05-25T04:59:36.217Z,12.42
2023-05-25T04:59:57.523Z,12.42
2023-05-25T05:02:02.897Z,12.06
2023-05-25T05:04:29.437Z,11.14
2023-05-25T05:04:57.553Z,11.14
2023-05-25T05:06:58.668Z,11.53
2023-05-25T05:09:25.439Z,12.07
2023-05-25T05:09:57.526Z,12.07
2023-05-25T05:11:51.939Z,12.10
2023-05-25T05:14:18.301Z,13.34
2023-05-25T05:14:57.560Z,13.34
2023-05-25T05:16:44.808Z,12.29
2023-05-25T05:19:11.245Z,11.75
2023-05-25T05:19:57.548Z,11.75
2023-05-25T05:21:37.623Z,12.35
2023-05-25T05:24:04.135Z,12.94
2023-05-25T05:24:57.538Z,12.94
2023-05-25T05:26:31.518Z,14.31
2023-05-25T05:29:00.699Z,15.04
2023-05-25T05:29:57.599Z,15.04
2023-05-25T05:31:27.657Z,15.45
2023-05-25T05:33:54.205Z,16.31
2023-05-25T05:34:57.529Z,16.31
2023-05-25T05:36:20.645Z,15.77
2023-05-25T05:38:47.348Z,16.08
2023-05-25T05:39:57.504Z,16.08
2023-05-25T05:41:14.428Z,15.40
2023-05-25T05:43:45.865Z,15.68
2023-05-25T05:44:57.525Z,15.68
2023-05-25T05:46:12.466Z,16.46
2023-05-25T05:48:38.970Z,15.70
2023-05-25T05:49:57.531Z,15.70
2023-05-25T05:51:05.949Z,15.73
2023-05-25T05:53:32.550Z,16.43
2023-05-25T05:54:57.586Z,16.43
2023-05-25T05:55:59.707Z,15.99
2023-05-25T05:58:26.807Z,16.53
2023-05-25T05:59:57.545Z,16.53
2023-05-25T06:00:54.345Z,15.76
2023-05-25T06:03:21.519Z,15.42
2023-05-25T06:04:57.559Z,15.42
2023-05-25T06:05:48.172Z,15.83
2023-05-25T06:08:15.003Z,16.37
2023-05-25T06:09:57.555Z,16.37
2023-05-25T06:10:43.552Z,16.82
2023-05-25T06:13:10.071Z,16.87
2023-05-25T06:14:57.533Z,16.87
2023-05-25T06:15:36.897Z,15.92
2023-05-25T06:18:03.740Z,16.56
2023-05-25T06:19:57.585Z,16.56
2023-05-25T06:20:30.456Z,15.50
2023-05-25T06:22:57.053Z,14.78
2023-05-25T06:24:57.662Z,14.78
2023-05-25T06:25:23.854Z,14.25
2023-05-25T06:27:50.471Z,14.29
2023-05-25T06:29:57.552Z,14.29
2023-05-25T06:30:16.881Z,14.06
2023-05-25T06:32:43.490Z,14.08
2023-05-25T06:34:57.569Z,14.08
2023-05-25T06:35:13.394Z,14.54
2023-05-25T06:37:39.934Z,13.68
2023-05-25T06:39:57.794Z,13.68
2023-05-25T06:40:09.480Z,14.26
2023-05-25T06:42:36.043Z,14.35
2023-05-25T06:44:57.536Z,14.35
2023-05-25T06:45:02.517Z,13.88
2023-05-25T06:47:31.086Z,14.23
2023-05-25T06:49:58.407Z,13.63
2023-05-25T06:49:58.571Z,13.63
2023-05-25T06:52:24.854Z,14.19
2023-05-25T06:54:51.499Z,14.23
2023-05-25T06:54:57.581Z,14.23
2023-05-25T06:57:17.962Z,13.76
2023-05-25T06:59:44.501Z,13.83
2023-05-25T06:59:57.552Z,13.83
2023-05-25T07:02:10.912Z,13.75
2023-05-25T07:04:37.947Z,14.58
2023-05-25T07:04:57.643Z,14.58
2023-05-25T07:07:04.662Z,14.68
2023-05-25T07:09:31.037Z,14.14
2023-05-25T07:09:57.554Z,14.14
2023-05-25T07:11:57.552Z,13.66
2023-05-25T07:14:24.093Z,13.79
2023-05-25T07:14:57.555Z,13.79
2023-05-25T07:16:50.634Z,14.00
2023-05-25T07:19:17.125Z,14.41
2023-05-25T07:19:57.577Z,14.41
2023-05-25T07:21:43.511Z,14.51
2023-05-25T07:24:09.947Z,13.97
2023-05-25T07:24:57.544Z,13.97
2023-05-25T07:26:36.476Z,14.73
2023-05-25T07:29:03.166Z,14.32
2023-05-25T07:29:57.647Z,14.32
2023-05-25T07:31:29.716Z,14.97
2023-05-25T07:33:56.210Z,14.49
2023-05-25T07:34:57.586Z,14.49
2023-05-25T07:36:24.791Z,14.83
2023-05-25T07:38:51.836Z,15.07
2023-05-25T07:39:57.553Z,15.07
2023-05-25T07:41:18.342Z,14.57
2023-05-25T07:43:44.727Z,14.51
2023-05-25T07:44:57.519Z,14.51
2023-05-25T07:46:11.212Z,14.49
2023-05-25T07:48:37.817Z,15.41
2023-05-25T07:49:57.553Z,15.41
2023-05-25T07:51:04.314Z,15.75
2023-05-25T07:53:30.830Z,15.50
2023-05-25T07:54:57.597Z,15.50
2023-05-25T07:55:57.341Z,15.11
2023-05-25T07:58:23.801Z,15.59
2023-05-25T07:59:57.547Z,15.59
2023-05-25T08:00:50.416Z,16.07
2023-05-25T08:03:17.839Z,14.73
2023-05-25T08:04:57.593Z,14.73
2023-05-25T08:05:44.722Z,15.87
2023-05-25T08:08:11.400Z,15.73
2023-05-25T08:09:57.558Z,15.73
2023-05-25T08:10:37.810Z,15.94
2023-05-25T08:13:04.223Z,15.72
2023-05-25T08:14:57.529Z,15.72
2023-05-25T08:15:31.443Z,16.13
2023-05-25T08:17:57.948Z,16.18
2023-05-25T08:19:57.574Z,16.18
2023-05-25T08:20:27.305Z,15.35
2023-05-25T08:22:54.540Z,15.71
2023-05-25T08:24:57.573Z,15.71
2023-05-25T08:25:21.235Z,15.91
2023-05-25T08:27:48.157Z,15.14
2023-05-25T08:29:57.656Z,15.14
2023-05-25T08:30:14.704Z,15.23
2023-05-25T08:32:41.235Z,15.68
2023-05-25T08:34:57.532Z,15.68
2023-05-25T08:35:08.055Z,15.19
2023-05-25T08:37:35.596Z,15.65
2023-05-25T08:39:57.564Z,15.65
2023-05-25T08:40:02.674Z,15.13
2023-05-25T08:42:29.307Z,15.83
2023-05-25T08:44:56.757Z,15.59
2023-05-25T08:44:57.552Z,15.59
2023-05-25T08:47:23.393Z,16.62
2023-05-25T08:49:50.845Z,16.82
2023-05-25T08:49:57.598Z,16.82
2023-05-25T08:52:22.311Z,16.04
2023-05-25T08:54:51.438Z,16.89
2023-05-25T08:54:57.549Z,16.89
2023-05-25T08:57:25.786Z,16.48
2023-05-25T09:00:02.660Z,16.38
2023-05-25T09:00:02.837Z,16.38
2023-05-25T09:03:01.524Z,16.49
2023-05-25T09:04:57.522Z,16.49
2023-05-25T09:05:28.185Z,16.75
2023-05-25T09:07:56.110Z,16.08
2023-05-25T09:09:57.526Z,16.08
2023-05-25T09:10:24.519Z,16.79
2023-05-25T09:12:52.019Z,16.30
2023-05-25T09:14:57.567Z,16.30
2023-05-25T09:15:18.713Z,16.27
2023-05-25T09:17:45.223Z,16.06
2023-05-25T09:19:57.613Z,16.06
2023-05-25T09:20:13.851Z,16.27
2023-05-25T09:22:41.713Z,15.83
2023-05-25T09:24:57.544Z,15.83
2023-05-25T09:25:10.076Z,16.25
2023-05-25T09:27:39.944Z,16.39
2023-05-25T09:29:57.571Z,16.39
2023-05-25T09:30:07.239Z,16.19
2023-05-25T09:32:33.837Z,15.00
2023-05-25T09:34:57.553Z,15.00
2023-05-25T09:35:10.634Z,15.86
2023-05-25T09:37:37.788Z,15.93
2023-05-25T09:39:57.557Z,15.93
2023-05-25T09:40:06.003Z,15.66
2023-05-25T09:42:33.584Z,15.90
2023-05-25T09:44:57.541Z,15.90
2023-05-25T09:45:00.459Z,16.31
2023-05-25T09:47:28.162Z,16.00
2023-05-25T09:49:56.641Z,16.41
2023-05-25T09:49:57.553Z,16.41
2023-05-25T09:52:23.493Z,16.82
2023-05-25T09:54:51.583Z,16.96
2023-05-25T09:54:57.654Z,16.96
2023-05-25T09:57:19.822Z,17.02
2023-05-25T09:59:47.151Z,16.97
2023-05-25T09:59:57.589Z,16.97
2023-05-25T10:02:14.609Z,16.66
2023-05-25T10:04:41.523Z,16.22
2023-05-25T10:04:57.573Z,16.22
2023-05-25T10:07:08.591Z,16.61
2023-05-25T10:09:43.276Z,16.69
2023-05-25T10:09:57.553Z,16.69
2023-05-25T10:12:11.683Z,16.28
2023-05-25T10:14:38.957Z,16.43
2023-05-25T10:14:57.598Z,16.43
2023-05-25T10:17:07.124Z,16.41
2023-05-25T10:19:42.646Z,16.50
2023-05-25T10:19:57.615Z,16.50
2023-05-25T10:22:16.171Z,17.11
2023-05-25T10:25:04.002Z,17.22
2023-05-25T10:25:04.161Z,17.22
2023-05-25T10:27:39.188Z,17.22
2023-05-25T10:29:57.591Z,17.22
2023-05-25T10:30:06.496Z,17.08
2023-05-25T10:32:34.605Z,17.47
2023-05-25T10:34:57.546Z,17.47
2023-05-25T10:35:03.144Z,17.37
2023-05-25T10:37:30.880Z,17.28
2023-05-25T10:39:58.257Z,16.84
2023-05-25T10:39:58.523Z,16.84
2023-05-25T10:42:26.207Z,17.17
2023-05-25T10:44:52.968Z,17.02
2023-05-25T10:44:57.529Z,17.02
2023-05-25T10:47:20.487Z,16.45
2023-05-25T10:49:55.093Z,16.69
2023-05-25T10:49:57.596Z,16.69
2023-05-25T10:52:21.993Z,16.98
2023-05-25T10:54:49.030Z,17.13
2023-05-25T10:54:57.613Z,17.13
2023-05-25T10:57:20.603Z,16.60
2023-05-25T11:00:06.689Z,16.82
2023-05-25T11:00:07.256Z,16.82
2023-05-25T11:02:51.625Z,17.09
2023-05-25T11:04:57.560Z,17.09
2023-05-25T11:05:27.406Z,17.06
2023-05-25T11:08:00.459Z,17.23
2023-05-25T11:09:57.550Z,17.23
2023-05-25T11:10:48.784Z,16.04
2023-05-25T11:13:37.833Z,16.78
2023-05-25T11:14:57.553Z,16.78
2023-05-25T11:16:27.590Z,16.99
2023-05-25T11:18:59.562Z,17.02
2023-05-25T11:19:57.568Z,17.02
2023-05-25T11:21:32.096Z,16.80
2023-05-25T11:24:04.400Z,16.42
2023-05-25T11:24:57.563Z,16.42
2023-05-25T11:26:33.548Z,16.42
2023-05-25T11:29:11.787Z,17.03
2023-05-25T11:29:57.591Z,17.03
2023-05-25T11:31:42.485Z,16.67
2023-05-25T11:34:11.973Z,16.88
2023-05-25T11:34:57.581Z,16.88
2023-05-25T11:36:39.180Z,16.07
2023-05-25T11:39:11.659Z,15.93
2023-05-25T11:39:57.544Z,15.93
2023-05-25T11:41:49.968Z,15.54
2023-05-25T11:44:27.432Z,16.07
2023-05-25T11:44:57.563Z,16.07
2023-05-25T11:46:57.566Z,16.07
2023-05-25T11:49:25.902Z,16.51
2023-05-25T11:49:57.550Z,16.51
2023-05-25T11:51:53.733Z,16.45
2023-05-25T11:54:28.607Z,14.99
2023-05-25T11:54:57.569Z,14.99
2023-05-25T11:56:59.168Z,16.24
2023-05-25T11:59:28.215Z,16.02
2023-05-25T11:59:57.559Z,16.02
2023-05-25T12:02:01.688Z,16.00
2023-05-25T12:04:29.598Z,15.43
2023-05-25T12:04:57.648Z,15.43
2023-05-25T12:07:07.034Z,15.99
2023-05-25T12:09:34.890Z,16.07
2023-05-25T12:09:57.550Z,16.07
2023-05-25T12:12:03.776Z,16.59
2023-05-25T12:14:30.582Z,16.08
2023-05-25T12:14:59.032Z,16.08
2023-05-25T12:16:57.885Z,16.43
2023-05-25T12:19:24.499Z,16.40
2023-05-25T12:19:57.604Z,16.40
2023-05-25T12:21:51.745Z,16.28
2023-05-25T12:24:19.023Z,16.06
2023-05-25T12:24:57.537Z,16.06
2023-05-25T12:26:57.282Z,16.07
2023-05-25T12:29:25.354Z,15.51
2023-05-25T12:29:57.644Z,15.51
2023-05-25T12:31:51.844Z,15.97
2023-05-25T12:34:20.106Z,16.04
2023-05-25T12:34:57.538Z,16.04
2023-05-25T12:36:54.052Z,16.27
2023-05-25T12:39:29.396Z,16.58
2023-05-25T12:39:59.996Z,16.58
2023-05-25T12:41:57.148Z,15.84
2023-05-25T12:44:31.328Z,16.99
2023-05-25T12:44:57.571Z,16.99
2023-05-25T12:47:28.509Z,16.21
2023-05-25T12:50:14.994Z,17.12
2023-05-25T12:50:15.319Z,17.12
2023-05-25T12:52:43.936Z,17.01
2023-05-25T12:54:57.581Z,17.01
2023-05-25T12:55:30.236Z,16.65
2023-05-25T12:58:05.469Z,16.90
2023-05-25T12:59:57.538Z,16.90
2023-05-25T13:00:34.628Z,16.74
2023-05-25T13:03:01.554Z,16.75
2023-05-25T13:04:57.578Z,16.75
2023-05-25T13:05:29.960Z,16.54
2023-05-25T13:07:57.679Z,17.06
2023-05-25T13:09:57.618Z,17.06
2023-05-25T13:10:24.830Z,16.58
2023-05-25T13:12:53.671Z,16.70
2023-05-25T13:14:57.551Z,16.70
2023-05-25T13:15:21.629Z,16.74
2023-05-25T13:17:52.807Z,16.71
2023-05-25T13:19:57.663Z,16.71
2023-05-25T13:20:22.280Z,15.49
2023-05-25T13:22:50.150Z,16.91
2023-05-25T13:24:57.570Z,16.91
2023-05-25T13:25:16.673Z,17.21
2023-05-25T13:27:48.282Z,17.23
2023-05-25T13:29:57.633Z,17.23
2023-05-25T13:30:15.638Z,16.81
2023-05-25T13:32:45.496Z,17.06
2023-05-25T13:34:57.551Z,17.06
2023-05-25T13:35:18.901Z,16.95
2023-05-25T13:37:46.116Z,17.57
2023-05-25T13:39:57.556Z,17.57
2023-05-25T13:40:13.431Z,16.83
2023-05-25T13:42:39.910Z,17.00
2023-05-25T13:44:57.548Z,17.00
2023-05-25T13:45:06.993Z,16.69
2023-05-25T13:47:33.600Z,16.43
2023-05-25T13:49:57.547Z,16.43
2023-05-25T13:50:00.125Z,16.48
2023-05-25T13:52:27.673Z,16.31
2023-05-25T13:54:54.230Z,16.38
2023-05-25T13:54:57.598Z,16.38
2023-05-25T13:57:22.399Z,16.72
2023-05-25T13:59:48.832Z,16.88
2023-05-25T13:59:57.565Z,16.88
2023-05-25T14:02:15.453Z,17.24
2023-05-25T14:04:41.915Z,16.63
2023-05-25T14:04:57.562Z,16.63
2023-05-25T14:07:08.580Z,15.93
2023-05-25T14:09:34.966Z,16.49
2023-05-25T14:10:00.034Z,16.49
2023-05-25T14:12:01.530Z,16.42
2023-05-25T14:14:31.946Z,16.74
2023-05-25T14:14:57.561Z,16.74
2023-05-25T14:17:00.233Z,16.89
2023-05-25T14:19:26.739Z,17.25
2023-05-25T14:19:57.645Z,17.25
2023-05-25T14:22:10.980Z,17.35
2023-05-25T14:24:38.714Z,16.91
2023-05-25T14:24:57.571Z,16.91
2023-05-25T14:27:06.890Z,16.52
2023-05-25T14:29:33.300Z,16.98
2023-05-25T14:29:57.660Z,16.98
2023-05-25T14:31:59.895Z,17.07
2023-05-25T14:34:26.309Z,16.65
2023-05-25T14:34:57.567Z,16.65
2023-05-25T14:36:52.706Z,16.46
2023-05-25T14:39:19.060Z,17.58
2023-05-25T14:39:57.569Z,17.58
2023-05-25T14:41:45.542Z,17.50
2023-05-25T14:44:11.895Z,17.06
2023-05-25T14:44:57.560Z,17.06
2023-05-25T14:46:38.342Z,17.14
2023-05-25T14:49:04.750Z,17.46
2023-05-25T14:49:57.579Z,17.46
2023-05-25T14:51:31.137Z,17.35
2023-05-25T14:54:00.137Z,16.16
2023-05-25T14:54:57.572Z,16.16
2023-05-25T14:56:26.669Z,16.62
2023-05-25T14:58:53.209Z,16.75
2023-05-25T14:59:57.548Z,16.75
2023-05-25T15:01:19.702Z,17.30
2023-05-25T15:03:46.282Z,17.58
2023-05-25T15:04:57.562Z,17.58
2023-05-25T15:06:12.755Z,16.87
2023-05-25T15:08:39.187Z,16.64
2023-05-25T15:09:57.549Z,16.64
2023-05-25T15:11:08.065Z,16.75
2023-05-25T15:13:34.463Z,16.86
2023-05-25T15:14:57.548Z,16.86
2023-05-25T15:16:00.846Z,16.37
2023-05-25T15:18:27.269Z,16.85
2023-05-25T15:19:57.553Z,16.85
2023-05-25T15:20:53.722Z,16.33
2023-05-25T15:23:20.073Z,16.20
2023-05-25T15:24:57.577Z,16.20
2023-05-25T15:25:46.431Z,16.89
2023-05-25T15:28:12.773Z,17.07
2023-05-25T15:29:57.558Z,17.07
2023-05-25T15:30:39.147Z,16.78
2023-05-25T15:33:05.614Z,17.12
2023-05-25T15:34:57.576Z,17.12
2023-05-25T15:35:32.352Z,17.47
2023-05-25T15:37:59.939Z,17.38
2023-05-25T15:39:57.559Z,17.38
2023-05-25T15:40:26.792Z,17.49
2023-05-25T15:42:53.498Z,17.24
2023-05-25T15:44:57.620Z,17.24
2023-05-25T15:45:19.909Z,17.55
2023-05-25T15:47:46.333Z,17.40
2023-05-25T15:49:57.565Z,17.40
2023-05-25T15:50:12.890Z,17.33
2023-05-25T15:52:39.263Z,16.47
2023-05-25T15:54:57.648Z,16.47
2023-05-25T15:55:06.170Z,16.62
2023-05-25T15:57:32.503Z,17.05
2023-05-25T15:59:57.606Z,17.05
2023-05-25T15:59:58.918Z,17.05
2023-05-25T16:02:25.360Z,16.95
2023-05-25T16:04:51.738Z,16.87
2023-05-25T16:04:57.561Z,16.87
2023-05-25T16:07:18.081Z,17.03
2023-05-25T16:09:44.567Z,17.13
2023-05-25T16:09:57.577Z,17.13
2023-05-25T16:12:10.942Z,16.95
2023-05-25T16:14:37.404Z,17.44
2023-05-25T16:14:57.564Z,17.44
2023-05-25T16:17:03.869Z,17.40
2023-05-25T16:19:30.297Z,17.59
2023-05-25T16:19:57.678Z,17.59
2023-05-25T16:21:56.781Z,17.17
2023-05-25T16:24:24.873Z,16.52
2023-05-25T16:24:57.551Z,16.52
2023-05-25T16:26:52.778Z,17.23
2023-05-25T16:29:19.249Z,16.77
2023-05-25T16:29:57.573Z,16.77
2023-05-25T16:31:45.667Z,17.03
2023-05-25T16:34:12.031Z,17.00
2023-05-25T16:34:57.552Z,17.00
2023-05-25T16:36:38.369Z,16.08
2023-05-25T16:39:05.642Z,16.99
2023-05-25T16:39:57.670Z,16.99
2023-05-25T16:41:32.008Z,17.16
2023-05-25T16:43:58.739Z,16.42
2023-05-25T16:44:57.542Z,16.42
2023-05-25T16:46:25.952Z,16.88
2023-05-25T16:48:52.358Z,17.29
2023-05-25T16:49:57.554Z,17.29
2023-05-25T16:51:18.776Z,17.15
2023-05-25T16:53:45.609Z,17.31
2023-05-25T16:54:57.546Z,17.31
2023-05-25T16:56:12.030Z,16.68
2023-05-25T16:58:38.425Z,16.74
2023-05-25T16:59:57.550Z,16.74
2023-05-25T17:01:04.921Z,17.03
2023-05-25T17:03:34.279Z,16.83
2023-05-25T17:04:57.564Z,16.83
2023-05-25T17:06:00.844Z,16.82
2023-05-25T17:08:27.227Z,16.39
2023-05-25T17:09:57.567Z,16.39
2023-05-25T17:10:53.661Z,16.89
2023-05-25T17:13:20.087Z,16.89
2023-05-25T17:14:57.558Z,16.89
2023-05-25T17:15:47.200Z,16.59
2023-05-25T17:18:13.835Z,16.72
2023-05-25T17:19:57.603Z,16.72
2023-05-25T17:20:40.359Z,16.63
2023-05-25T17:23:06.967Z,16.88
2023-05-25T17:24:57.549Z,16.88
2023-05-25T17:25:34.328Z,16.37
2023-05-25T17:28:00.877Z,16.65
2023-05-25T17:29:57.625Z,16.65
2023-05-25T17:30:27.285Z,16.57
2023-05-25T17:32:54.448Z,16.27
2023-05-25T17:34:57.554Z,16.27
2023-05-25T17:35:20.853Z,16.31
2023-05-25T17:37:47.243Z,16.45
2023-05-25T17:39:57.544Z,16.45
2023-05-25T17:40:14.167Z,16.61
2023-05-25T17:42:40.634Z,16.38
2023-05-25T17:44:57.566Z,16.38
2023-05-25T17:45:11.346Z,16.39
2023-05-25T17:47:38.103Z,15.81
2023-05-25T17:49:57.564Z,15.81
2023-05-25T17:50:05.155Z,15.37
2023-05-25T17:52:31.640Z,16.06
2023-05-25T17:54:58.066Z,15.63
2023-05-25T17:54:58.709Z,15.63
2023-05-25T17:57:24.540Z,16.23
2023-05-25T17:59:50.951Z,15.67
2023-05-25T17:59:57.555Z,15.67
2023-05-25T18:02:17.592Z,15.95
2023-05-25T18:04:44.141Z,15.77
2023-05-25T18:04:57.573Z,15.77
2023-05-25T18:07:12.866Z,15.82
2023-05-25T18:09:39.283Z,16.11
2023-05-25T18:09:57.614Z,16.11
2023-05-25T18:12:07.472Z,16.01
2023-05-25T18:14:37.348Z,16.01
2023-05-25T18:14:57.558Z,16.01
2023-05-25T18:17:03.847Z,15.47
2023-05-25T18:19:30.469Z,15.61
2023-05-25T18:19:57.585Z,15.61
2023-05-25T18:21:56.901Z,15.91
2023-05-25T18:24:23.342Z,15.33
2023-05-25T18:24:57.588Z,15.33
2023-05-25T18:26:49.792Z,15.21
2023-05-25T18:29:16.352Z,15.32
2023-05-25T18:29:57.629Z,15.32
2023-05-25T18:31:48.339Z,15.72
2023-05-25T18:34:14.949Z,15.75
2023-05-25T18:34:57.617Z,15.75
2023-05-25T18:36:41.392Z,15.62
2023-05-25T18:39:07.888Z,15.60
2023-05-25T18:39:57.571Z,15.60
2023-05-25T18:41:34.435Z,15.54
2023-05-25T18:44:00.780Z,14.97
2023-05-25T18:44:57.574Z,14.97
2023-05-25T18:46:28.336Z,15.04
2023-05-25T18:48:55.725Z,14.85
2023-05-25T18:49:57.586Z,14.85
2023-05-25T18:51:25.470Z,15.11
2023-05-25T18:53:51.850Z,15.00
2023-05-25T18:54:57.597Z,15.00
2023-05-25T18:56:18.590Z,14.76
2023-05-25T18:58:45.221Z,14.95
2023-05-25T18:59:57.588Z,14.95
2023-05-25T19:01:11.724Z,14.90
2023-05-25T19:03:38.277Z,14.27
2023-05-25T19:04:57.566Z,14.27
2023-05-25T19:06:05.001Z,14.36
2023-05-25T19:08:31.357Z,14.70
2023-05-25T19:09:57.555Z,14.70
2023-05-25T19:10:57.810Z,14.70
2023-05-25T19:13:24.429Z,14.68
2023-05-25T19:14:57.600Z,14.68
2023-05-25T19:15:51.013Z,10.37
2023-05-25T19:18:17.582Z,14.38
2023-05-25T19:19:57.610Z,14.38
2023-05-25T19:20:44.090Z,14.53
2023-05-25T19:23:10.536Z,14.34
2023-05-25T19:25:01.003Z,14.34
2023-05-25T19:25:36.966Z,14.10
2023-05-25T19:28:03.380Z,14.10
2023-05-25T19:29:57.653Z,14.10
2023-05-25T19:30:29.749Z,14.15
2023-05-25T19:32:56.201Z,13.97
2023-05-25T19:34:57.583Z,13.97
2023-05-25T19:35:22.579Z,14.23
2023-05-25T19:37:49.045Z,13.90
2023-05-25T19:39:57.566Z,13.90
2023-05-25T19:40:15.582Z,14.07
2023-05-25T19:42:41.914Z,13.66
2023-05-25T19:44:57.569Z,13.66
2023-05-25T19:45:08.581Z,13.62
2023-05-25T19:47:37.403Z,13.83
2023-05-25T19:49:57.580Z,13.83
2023-05-25T19:50:07.067Z,13.31
2023-05-25T19:52:33.430Z,13.60
2023-05-25T19:54:57.623Z,13.60
2023-05-25T19:54:59.787Z,13.14
2023-05-25T19:57:27.213Z,13.50
2023-05-25T19:59:53.820Z,13.14
2023-05-25T19:59:57.583Z,13.14
2023-05-25T20:02:20.746Z,13.34
2023-05-25T20:04:47.233Z,13.26
2023-05-25T20:04:57.583Z,13.26
2023-05-25T20:07:13.726Z,13.34
2023-05-25T20:09:40.216Z,13.45
2023-05-25T20:09:57.602Z,13.45
2023-05-25T20:12:07.084Z,13.06
2023-05-25T20:14:36.338Z,12.91
2023-05-25T20:14:57.573Z,12.91
2023-05-25T20:17:03.172Z,13.23
2023-05-25T20:19:29.628Z,13.16
2023-05-25T20:19:57.602Z,13.16
2023-05-25T20:21:57.709Z,13.15
2023-05-25T20:24:24.092Z,13.09
2023-05-25T20:24:57.576Z,13.09
2023-05-25T20:26:56.222Z,12.69
2023-05-25T20:29:23.617Z,13.09
2023-05-25T20:29:57.644Z,13.09
2023-05-25T20:31:50.254Z,12.87
2023-05-25T20:34:16.600Z,12.59
2023-05-25T20:34:57.589Z,12.59
2023-05-25T20:36:42.941Z,12.53
2023-05-25T20:39:09.336Z,12.87
2023-05-25T20:39:57.561Z,12.87
2023-05-25T20:41:36.137Z,12.45
2023-05-25T20:44:02.715Z,12.60
2023-05-25T20:44:57.572Z,12.60
2023-05-25T20:46:29.188Z,11.97
2023-05-25T20:48:56.961Z,12.49
2023-05-25T20:49:57.607Z,12.49
2023-05-25T20:51:23.594Z,12.04
2023-05-25T20:53:49.955Z,12.10
2023-05-25T20:54:57.580Z,12.10
2023-05-25T20:56:16.333Z,12.16
2023-05-25T20:58:42.737Z,12.07
2023-05-25T20:59:57.562Z,12.07
2023-05-25T21:01:09.203Z,11.64
2023-05-25T21:03:35.921Z,10.78
2023-05-25T21:04:57.605Z,10.78
2023-05-25T21:06:02.409Z,11.86
2023-05-25T21:08:28.842Z,10.69
2023-05-25T21:09:57.570Z,10.69
2023-05-25T21:10:55.636Z,11.74
2023-05-25T21:13:21.994Z,11.64
2023-05-25T21:14:57.591Z,11.64
2023-05-25T21:15:50.813Z,11.31
2023-05-25T21:18:17.226Z,11.62
2023-05-25T21:19:57.625Z,11.62
2023-05-25T21:20:43.860Z,11.59
2023-05-25T21:23:10.323Z,11.34
2023-05-25T21:24:57.609Z,11.34
2023-05-25T21:25:38.810Z,11.40